Latest Coastal Weather Observations for Yeppoon

IDQ60701

Issued at 4:25 pm EST Thursday 24 April 2014 (issued every 10 minutes, with the page automatically refreshed every 10 minutes)

About coastal observations | Map of coastal stations | Coastal observations for QLD | Marine services | Other Formats
Station Details ID: 033294 Name: YEPPOON THE ESPLANADE Lat: -23.14 Lon: 150.75 Height: 5.5 m
Data from the previous 72 hours. | See also: Recent months at Yeppoon
Date/Time
EST
Temp

°C
Wind Pressure Rain
since 9am
mm
Weather Cloud Vis
km
Sea
Height
m
Swell
Dir
 
Speed
knots
Gust
knots
hPa Trend Height
m
Period
s
Dir
24/04:00pm 24.5 E 8 11 1013.2 - 0.2 - - - - - - -
24/03:30pm 24.5 E 10 12 1013.1 - 0.2 - - - - - - -
24/03:00pm 24.6 E 7 9 1013.1 - 0.2 - - - - - - -
24/02:30pm 24.6 E 8 12 1013.1 - 0.2 - - - - - - -
24/02:00pm 24.7 E 9 12 1013.2 - 0.2 - - - - - - -
24/01:30pm 24.9 E 10 13 1013.4 - 0.2 - - - - - - -
24/01:00pm 25.3 E 9 12 1013.7 - 0.2 - - - - - - -
24/12:30pm 25.4 ESE 7 11 1014.3 - 0.2 - - - - - - -
24/12:00pm 24.9 ESE 7 11 1014.6 - 0.2 - - - - - - -
24/11:30am 24.0 SSE 6 11 1015.1 - 0.2 - - - - - - -
24/11:00am 23.7 SSE 6 10 1015.6 - 0.2 - - - - - - -
24/10:30am 23.2 S 6 9 1016.2 - 0.2 - - - - - - -
24/10:00am 22.5 SSE 4 6 1016.3 - 0.2 - - - - - - -
24/09:30am 21.8 SSE 6 8 1016.4 - 0.2 - - - - - - -
24/09:00am 21.7 ESE 9 16 1016.5 - 8.2 - - - - - - -
24/08:30am 21.2 SSE 6 8 1016.0 - 8.2 - - - - - - -
24/08:00am 21.1 WSW 8 11 1016.4 - 7.4 - - - - - - -
24/07:30am 21.3 SSW 6 8 1016.0 - 5.8 - - - - - - -
24/07:00am 21.3 CALM 0 0 1014.9 - 5.8 - - - - - - -
24/06:30am 21.1 WSW 5 7 1015.1 - 5.8 - - - - - - -
24/06:00am 21.1 S 4 6 1014.5 - 5.8 - - - - - - -
24/05:30am 20.9 SW 1 5 1014.4 - 5.8 - - - - - - -
24/05:00am 21.1 SSW 3 4 1014.2 - 5.6 - - - - - - -
24/04:30am 21.3 W 1 5 1014.6 - 5.6 - - - - - - -
24/04:00am 22.6 ENE 6 8 1014.1 - 5.6 - - - - - - -
24/03:30am 22.3 E 5 7 1014.6 - 5.6 - - - - - - -
24/03:00am 22.3 E 4 7 1014.5 - 5.6 - - - - - - -
24/02:30am 22.2 NE 11 15 1014.3 - 5.6 - - - - - - -
24/02:00am 22.6 NE 10 12 1014.8 - 5.4 - - - - - - -
24/01:30am 22.6 E 6 9 1015.2 - 5.4 - - - - - - -
24/01:00am 22.5 ENE 7 10 1015.4 - 5.4 - - - - - - -
24/12:30am 22.2 E 7 9 1015.9 - 5.4 - - - - - - -
24/12:00am 21.9 E 6 8 1016.4 - 5.4 - - - - - - -
 
Date/Time
EST
Temp

°C
Wind Pressure Rain
since 9am
mm
Weather Cloud Vis
km
Sea
Height
m
Swell
Dir
 
Speed
knots
Gust
knots
hPa Trend Height
m
Period
s
Dir
23/11:30pm 22.2 E 6 9 1017.0 - 5.2 - - - - - - -
23/11:00pm 22.8 ENE 7 10 1017.1 - 5.2 - - - - - - -
23/10:30pm 22.8 NE 10 12 1017.1 - 5.2 - - - - - - -
23/10:00pm 22.7 E 6 9 1017.3 - 5.2 - - - - - - -
23/09:30pm 23.2 E 7 10 1017.3 - 5.0 - - - - - - -
23/09:00pm 22.8 E 7 11 1017.0 - 5.0 - - - - - - -
23/08:30pm 22.9 E 8 11 1017.0 - 5.0 - - - - - - -
23/08:00pm 22.9 E 9 12 1016.7 - 5.0 - - - - - - -
23/07:30pm 22.8 E 9 13 1016.4 - 5.0 - - - - - - -
23/07:00pm 22.4 E 6 10 1016.2 - 5.0 - - - - - - -
23/06:30pm 22.5 E 7 10 1015.7 - 5.0 - - - - - - -
23/06:00pm 22.2 E 10 13 1015.3 - 5.0 - - - - - - -
23/05:30pm 22.2 ENE 11 17 1015.3 - 4.8 - - - - - - -
23/05:00pm 22.3 E 11 14 1015.4 - 4.2 - - - - - - -
23/04:30pm 22.7 NE 8 11 1015.0 - 1.8 - - - - - - -
23/04:00pm 23.0 NE 8 10 1015.1 - 1.2 - - - - - - -
23/03:30pm 23.0 NE 6 8 1014.9 - 0.8 - - - - - - -
23/03:00pm 23.3 ENE 6 9 1015.0 - 0.8 - - - - - - -
23/02:30pm 24.0 SE 4 6 1014.5 - 0.6 - - - - - - -
23/02:00pm 23.4 CALM 0 3 1014.7 - 0.6 - - - - - - -
23/01:30pm 22.7 SE 3 4 1015.1 - 0.6 - - - - - - -
23/01:00pm 23.0 SSE 5 8 1015.7 - 0.4 - - - - - - -
23/12:30pm 22.6 SE 6 9 1016.1 - 0.4 - - - - - - -
23/12:00pm 23.4 ESE 8 12 1016.6 - 0.0 - - - - - - -
23/11:30am 24.0 ESE 6 8 1016.8 - 0.0 - - - - - - -
23/11:00am 24.0 SSE 5 8 1016.9 - 0.0 - - - - - - -
23/10:30am 23.5 ESE 5 7 1017.4 - 0.0 - - - - - - -
23/10:00am 23.0 E 8 11 1017.7 - 0.0 - - - - - - -
23/09:30am 22.9 SSE 6 8 1017.6 - 0.0 - - - - - - -
23/09:00am 22.2 S 6 9 1017.4 - 0.8 - - - - - - -
23/08:30am 21.5 S 7 11 1017.4 - 0.8 - - - - - - -
23/08:00am 21.3 SSW 5 8 1017.4 - 0.8 - - - - - - -
23/07:30am 21.5 S 6 10 1017.2 - 0.8 - - - - - - -
23/07:00am 21.9 SSW 8 11 1017.0 - 0.4 - - - - - - -
23/06:30am 22.1 S 5 9 1016.6 - 0.4 - - - - - - -
23/06:00am 22.6 S 4 5 1016.7 - 0.4 - - - - - - -
23/05:30am 23.9 SE 7 12 1016.6 - 0.4 - - - - - - -
23/05:00am 24.5 E 9 12 1016.1 - 0.4 - - - - - - -
23/04:30am 24.5 E 10 13 1016.2 - 0.4 - - - - - - -
23/04:00am 24.5 E 7 10 1016.8 - 0.4 - - - - - - -
23/03:30am 24.4 ESE 7 11 1016.4 - 0.4 - - - - - - -
23/03:00am 24.4 E 8 14 1015.9 - 0.4 - - - - - - -
23/02:30am 24.5 E 10 12 1016.0 - 0.4 - - - - - - -
23/02:00am 24.3 E 9 12 1016.5 - 0.4 - - - - - - -
23/01:30am 24.3 E 9 13 1016.6 - 0.4 - - - - - - -
23/01:00am 24.2 E 9 12 1016.9 - 0.4 - - - - - - -
23/12:30am 24.4 E 9 13 1017.9 - 0.4 - - - - - - -
23/12:00am 23.3 SE 7 9 1017.8 - 0.4 - - - - - - -
 
Date/Time
EST
Temp

°C
Wind Pressure Rain
since 9am
mm
Weather Cloud Vis
km
Sea
Height
m
Swell
Dir
 
Speed
knots
Gust
knots
hPa Trend Height
m
Period
s
Dir
22/11:30pm 24.8 E 8 10 1018.2 - 0.0 - - - - - - -
22/11:00pm 24.8 ENE 9 12 1017.5 - 0.0 - - - - - - -
22/10:30pm 24.5 E 8 10 1017.9 - 0.0 - - - - - - -
22/10:00pm 24.4 E 7 10 1018.1 - 0.0 - - - - - - -
22/09:30pm 24.5 E 7 9 1018.5 - 0.0 - - - - - - -
22/09:00pm 24.4 E 6 9 1018.6 - 0.0 - - - - - - -
22/08:30pm 24.4 E 7 11 1018.4 - 0.0 - - - - - - -
22/08:00pm 24.4 E 8 10 1018.3 - 0.0 - - - - - - -
22/07:30pm 24.5 E 8 12 1018.2 - 0.0 - - - - - - -
22/07:00pm 24.6 E 9 13 1017.9 - 0.0 - - - - - - -
22/06:30pm 24.7 E 10 14 1017.4 - 0.0 - - - - - - -
22/06:00pm 25.0 E 10 14 1017.3 - 0.0 - - - - - - -
22/05:30pm 25.0 E 10 14 1017.4 - 0.0 - - - - - - -
22/05:00pm 25.2 E 10 13 1017.3 - 0.0 - - - - - - -
22/04:30pm 25.4 E 10 14 1017.0 - 0.0 - - - - - - -
22/04:00pm 25.8 E 10 14 1016.9 - 0.0 - - - - - - -
22/03:30pm 25.8 E 9 13 1016.8 - 0.0 - - - - - - -
22/03:00pm 26.2 E 8 11 1017.1 - 0.0 - - - - - - -
22/02:30pm 26.4 ENE 8 12 1017.2 - 0.0 - - - - - - -
22/02:00pm 26.3 ENE 9 12 1017.3 - 0.0 - - - - - - -
22/01:30pm 26.8 ENE 8 11 1017.6 - 0.0 - - - - - - -
22/01:00pm 26.6 ENE 9 12 1017.9 - 0.0 - - - - - - -
22/12:30pm 26.6 E 10 12 1018.1 - 0.0 - - - - - - -
22/12:00pm 26.4 E 9 13 1018.5 - 0.0 - - - - - - -
22/11:30am 26.1 E 9 12 1018.9 - 0.0 - - - - - - -
22/11:00am 25.2 E 10 12 1019.3 - 0.0 - - - - - - -
22/10:30am 24.4 ESE 6 9 1019.6 - 0.0 - - - - - - -
22/10:00am 23.3 S 1 4 1019.9 - 0.0 - - - - - - -
22/09:30am 23.0 SSE 7 9 1020.1 - 0.0 - - - - - - -
22/09:00am 21.9 SW 5 7 1020.0 - 0.0 - - - - - - -
22/08:30am 20.7 WSW 5 7 1020.0 - 0.0 - - - - - - -
22/08:00am 20.1 SW 5 7 1019.6 - 0.0 - - - - - - -
22/07:30am 19.2 W 6 7 1019.4 - 0.0 - - - - - - -
22/07:00am 18.3 W 6 9 1019.3 - 0.0 - - - - - - -
22/06:30am 18.2 W 6 9 1019.1 - 0.0 - - - - - - -
22/06:00am 18.8 SW 5 9 1018.9 - 0.0 - - - - - - -
22/05:30am 18.6 SW 5 7 1018.7 - 0.0 - - - - - - -
22/05:00am 18.1 W 6 8 1018.7 - 0.0 - - - - - - -
22/04:30am 18.4 W 8 9 1018.4 - 0.0 - - - - - - -
22/04:00am 19.2 W 3 5 1018.3 - 0.0 - - - - - - -
22/03:30am 20.1 SW 3 6 1018.3 - 0.0 - - - - - - -
22/03:00am 22.2 SSE 4 6 1018.2 - 0.0 - - - - - - -
22/02:30am 23.8 E 7 11 1018.3 - 0.0 - - - - - - -
22/02:00am 24.1 E 9 12 1018.6 - 0.0 - - - - - - -
22/01:30am 24.3 E 10 15 1018.9 - 0.0 - - - - - - -
22/01:00am 24.2 E 9 12 1019.2 - 0.0 - - - - - - -
22/12:30am 24.3 E 9 13 1019.3 - 0.0 - - - - - - -
22/12:00am 24.4 ENE 10 13 1019.5 - 0.0 - - - - - - -
 
Date/Time
EST
Temp

°C
Wind Pressure Rain
since 9am
mm
Weather Cloud Vis
km
Sea
Height
m
Swell
Dir
 
Speed
knots
Gust
knots
hPa Trend Height
m
Period
s
Dir
21/11:30pm 24.5 E 10 14 1019.6 - 0.0 - - - - - - -
21/11:00pm 24.6 E 9 13 1019.7 - 0.0 - - - - - - -
21/10:30pm 24.6 E 11 14 1019.7 - 0.0 - - - - - - -
21/10:00pm 24.7 E 11 15 1019.8 - 0.0 - - - - - - -
21/09:30pm 24.7 ENE 13 18 1019.7 - 0.0 - - - - - - -
21/09:00pm 24.8 ENE 13 17 1019.7 - 0.0 - - - - - - -
21/08:30pm 24.8 ENE 12 16 1019.7 - 0.0 - - - - - - -
21/08:00pm 24.7 E 11 15 1019.7 - 0.0 - - - - - - -
21/07:30pm 24.8 ENE 12 17 1019.4 - 0.0 - - - - - - -
21/07:00pm 24.9 E 10 14 1019.1 - 0.0 - - - - - - -
21/06:30pm 24.9 E 10 14 1018.7 - 0.0 - - - - - - -
21/06:00pm 24.9 E 9 12 1018.4 - 0.0 - - - - - - -
21/05:30pm 25.1 E 10 13 1018.2 - 0.0 - - - - - - -
21/05:00pm 25.6 E 10 14 1018.0 - 0.0 - - - - - - -
21/04:30pm 25.8 E 9 12 1017.8 - 0.0 - - - - - - -

Other Formats:

Comma delimited format used in spreadsheet applications
http://www.bom.gov.au/fwo/IDQ60701/IDQ60701.94373.axf

JavaScript Object Notation format (JSON) in row-major order
http://www.bom.gov.au/fwo/IDQ60701/IDQ60701.94373.json